createdAt,value
2019-06-10T00:00:13.438Z,17.79
2019-06-10T00:02:41.336Z,17.47
2019-06-10T00:05:10.958Z,17.45
2019-06-10T00:07:40.942Z,17.43
2019-06-10T00:10:10.781Z,17.78
2019-06-10T00:12:41.832Z,17.44
2019-06-10T00:15:10.858Z,17.40
2019-06-10T00:17:52.747Z,17.39
2019-06-10T00:20:11.169Z,17.38
2019-06-10T00:22:40.907Z,17.36
2019-06-10T00:25:11.855Z,17.35
2019-06-10T00:27:42.042Z,17.35
2019-06-10T00:30:12.231Z,17.34
2019-06-10T00:32:41.174Z,17.33
2019-06-10T00:35:12.253Z,17.30
2019-06-10T00:37:41.902Z,17.29
2019-06-10T00:40:14.121Z,17.29
2019-06-10T00:42:41.893Z,17.28
2019-06-10T00:45:17.495Z,17.26
2019-06-10T00:47:41.440Z,17.23
2019-06-10T00:50:14.548Z,17.59
2019-06-10T00:52:42.157Z,17.27
2019-06-10T00:55:12.561Z,17.22
2019-06-10T00:57:41.863Z,17.21
2019-06-10T01:00:19.304Z,17.22
2019-06-10T01:02:41.126Z,17.23
2019-06-10T01:05:12.061Z,17.23
2019-06-10T01:07:41.405Z,17.24
2019-06-10T01:10:12.795Z,17.25
2019-06-10T01:12:41.264Z,17.25
2019-06-10T01:15:12.556Z,17.27
2019-06-10T01:17:41.761Z,17.27
2019-06-10T01:20:14.355Z,17.26
2019-06-10T01:22:41.179Z,17.27
2019-06-10T01:25:12.006Z,17.27
2019-06-10T01:27:40.975Z,17.27
2019-06-10T01:30:18.850Z,17.29
2019-06-10T01:32:41.605Z,17.29
2019-06-10T01:35:11.540Z,17.29
2019-06-10T01:37:41.386Z,17.28
2019-06-10T01:40:13.131Z,17.31
2019-06-10T01:42:41.297Z,17.29
2019-06-10T01:45:11.540Z,17.28
2019-06-10T01:47:41.646Z,17.30
2019-06-10T01:50:13.461Z,17.29
2019-06-10T01:52:41.112Z,17.30
2019-06-10T01:55:12.185Z,17.64
2019-06-10T01:57:41.330Z,17.30
2019-06-10T02:00:15.941Z,17.27
2019-06-10T02:02:44.779Z,17.27
2019-06-10T02:05:14.624Z,17.25
2019-06-10T02:07:42.451Z,17.24
2019-06-10T02:10:13.768Z,17.22
2019-06-10T02:12:41.678Z,17.22
2019-06-10T02:15:12.545Z,17.20
2019-06-10T02:17:41.730Z,17.20
2019-06-10T02:20:13.131Z,17.20
2019-06-10T02:22:41.107Z,17.21
2019-06-10T02:25:11.002Z,17.19
2019-06-10T02:27:41.477Z,17.19
2019-06-10T02:30:18.909Z,17.20
2019-06-10T02:32:42.797Z,17.20
2019-06-10T02:35:23.047Z,17.19
2019-06-10T02:37:44.499Z,17.21
2019-06-10T02:40:16.683Z,17.19
2019-06-10T02:42:49.741Z,17.22
2019-06-10T02:45:23.456Z,17.22
2019-06-10T02:47:48.610Z,17.20
2019-06-10T02:50:25.877Z,17.19
2019-06-10T02:52:53.052Z,17.20
2019-06-10T02:55:26.382Z,17.20
2019-06-10T02:57:49.839Z,17.19
2019-06-10T03:00:31.108Z,17.54
2019-06-10T03:02:48.531Z,17.23
2019-06-10T03:05:19.428Z,17.20
2019-06-10T03:07:47.147Z,17.19
2019-06-10T03:10:16.383Z,17.20
2019-06-10T03:12:45.466Z,17.20
2019-06-10T03:15:13.891Z,17.21
2019-06-10T03:17:42.951Z,17.21
2019-06-10T03:20:12.339Z,17.23
2019-06-10T03:22:42.293Z,17.22
2019-06-10T03:25:13.154Z,17.23
2019-06-10T03:27:42.471Z,17.25
2019-06-10T03:30:16.865Z,17.25
2019-06-10T03:32:46.964Z,17.28
2019-06-10T03:35:13.260Z,17.28
2019-06-10T03:37:42.382Z,17.27
2019-06-10T03:40:13.072Z,17.29
2019-06-10T03:42:42.746Z,17.29
2019-06-10T03:45:12.674Z,17.31
2019-06-10T03:47:42.702Z,17.29
2019-06-10T03:50:13.315Z,17.26
2019-06-10T03:52:43.183Z,17.22
2019-06-10T03:55:12.368Z,17.16
2019-06-10T03:57:42.346Z,17.14
2019-06-10T04:00:14.086Z,17.04
2019-06-10T04:02:43.160Z,17.00
2019-06-10T04:05:13.292Z,16.95
2019-06-10T04:07:42.713Z,16.90
2019-06-10T04:10:12.548Z,16.88
2019-06-10T04:12:43.267Z,16.86
2019-06-10T04:15:12.339Z,16.82
2019-06-10T04:17:42.843Z,16.81
2019-06-10T04:20:15.003Z,16.78
2019-06-10T04:22:41.702Z,16.76
2019-06-10T04:25:12.152Z,16.72
2019-06-10T04:27:42.445Z,16.71
2019-06-10T04:30:12.726Z,16.72
2019-06-10T04:32:42.917Z,16.74
2019-06-10T04:35:12.679Z,16.71
2019-06-10T04:37:42.636Z,16.73
2019-06-10T04:40:13.152Z,17.07
2019-06-10T04:42:40.048Z,16.77
2019-06-10T04:45:08.650Z,17.08
2019-06-10T04:47:37.082Z,16.76
2019-06-10T04:50:18.422Z,16.74
2019-06-10T04:52:36.416Z,16.69
2019-06-10T04:55:05.098Z,16.71
2019-06-10T04:57:33.610Z,16.71
2019-06-10T05:00:04.097Z,16.73
2019-06-10T05:02:33.016Z,16.74
2019-06-10T05:05:02.902Z,16.77
2019-06-10T05:07:36.495Z,16.79
2019-06-10T05:10:03.205Z,16.82
2019-06-10T05:12:32.737Z,16.84
2019-06-10T05:15:03.455Z,16.87
2019-06-10T05:17:34.073Z,16.90
2019-06-10T05:20:02.498Z,16.91
2019-06-10T05:22:32.828Z,16.93
2019-06-10T05:25:02.531Z,16.91
2019-06-10T05:27:33.017Z,16.94
2019-06-10T05:30:02.378Z,16.95
2019-06-10T05:32:33.300Z,16.96
2019-06-10T05:35:03.478Z,16.92
2019-06-10T05:37:33.669Z,16.87
2019-06-10T05:40:02.319Z,16.81
2019-06-10T05:42:34.026Z,16.81
2019-06-10T05:45:03.100Z,16.76
2019-06-10T05:47:35.628Z,16.76
2019-06-10T05:50:03.258Z,16.74
2019-06-10T05:52:33.828Z,16.77
2019-06-10T05:55:02.889Z,16.67
2019-06-10T05:57:33.513Z,16.60
2019-06-10T06:00:10.770Z,16.57
2019-06-10T06:02:33.697Z,16.52
2019-06-10T06:05:02.543Z,16.52
2019-06-10T06:07:33.599Z,16.49
2019-06-10T06:10:02.456Z,16.49
2019-06-10T06:12:33.873Z,16.50
2019-06-10T06:15:02.361Z,16.49
2019-06-10T06:17:32.774Z,16.49
2019-06-10T06:20:02.786Z,16.51
2019-06-10T06:22:33.736Z,16.53
2019-06-10T06:25:03.772Z,16.35
2019-06-10T06:27:33.382Z,16.57
2019-06-10T06:30:07.010Z,16.92
2019-06-10T06:32:33.680Z,16.63
2019-06-10T06:35:02.122Z,16.65
2019-06-10T06:37:34.677Z,16.68
2019-06-10T06:40:02.858Z,16.73
2019-06-10T06:42:33.531Z,16.78
2019-06-10T06:45:03.009Z,16.85
2019-06-10T06:47:34.064Z,16.88
2019-06-10T06:50:02.760Z,16.96
2019-06-10T06:52:55.597Z,17.00
2019-06-10T06:55:02.537Z,17.35
2019-06-10T06:57:33.740Z,17.08
2019-06-10T07:00:22.656Z,17.10
2019-06-10T07:02:34.202Z,17.13
2019-06-10T07:05:03.158Z,17.14
2019-06-10T07:07:33.114Z,17.50
2019-06-10T07:10:03.195Z,17.26
2019-06-10T07:12:33.770Z,17.56
2019-06-10T07:15:04.302Z,17.24
2019-06-10T07:17:34.523Z,17.20
2019-06-10T07:20:04.763Z,17.25
2019-06-10T07:22:35.292Z,17.27
2019-06-10T07:25:06.617Z,17.28
2019-06-10T07:27:37.518Z,17.29
2019-06-10T07:30:11.719Z,17.28
2019-06-10T07:32:38.829Z,17.29
2019-06-10T07:35:07.513Z,17.28
2019-06-10T07:37:37.593Z,17.30
2019-06-10T07:40:06.095Z,17.31
2019-06-10T07:42:34.902Z,17.68
2019-06-10T07:45:06.870Z,17.40
2019-06-10T07:47:35.495Z,17.41
2019-06-10T07:50:06.999Z,17.42
2019-06-10T07:52:35.922Z,17.46
2019-06-10T07:55:09.072Z,17.49
2019-06-10T07:57:37.538Z,17.56
2019-06-10T08:00:12.275Z,17.56
2019-06-10T08:02:44.304Z,17.59
2019-06-10T08:05:12.855Z,17.62
2019-06-10T08:07:43.772Z,17.69
2019-06-10T08:10:13.254Z,17.71
2019-06-10T08:12:46.243Z,17.67
2019-06-10T08:15:12.605Z,17.68
2019-06-10T08:17:42.913Z,17.73
2019-06-10T08:20:13.375Z,17.71
2019-06-10T08:22:50.170Z,17.77
2019-06-10T08:25:12.444Z,17.79
2019-06-10T08:27:44.985Z,18.15
2019-06-10T08:30:18.640Z,17.90
2019-06-10T08:32:46.342Z,17.91
2019-06-10T08:35:12.901Z,17.93
2019-06-10T08:37:43.204Z,18.00
2019-06-10T08:40:12.440Z,18.06
2019-06-10T08:42:43.691Z,18.08
2019-06-10T08:45:12.519Z,18.13
2019-06-10T08:47:44.315Z,18.18
2019-06-10T08:50:12.974Z,18.17
2019-06-10T08:52:53.824Z,18.25
2019-06-10T08:55:12.626Z,18.30
2019-06-10T08:57:44.170Z,18.39
2019-06-10T09:00:15.000Z,18.43
2019-06-10T09:02:45.187Z,18.83
2019-06-10T09:05:19.265Z,18.64
2019-06-10T09:07:51.287Z,18.67
2019-06-10T09:10:19.845Z,18.74
2019-06-10T09:12:50.949Z,18.83
2019-06-10T09:15:19.140Z,18.90
2019-06-10T09:17:50.016Z,18.95
2019-06-10T09:20:19.721Z,19.07
2019-06-10T09:23:00.124Z,19.07
2019-06-10T09:25:18.654Z,19.15
2019-06-10T09:27:49.617Z,19.23
2019-06-10T09:30:18.274Z,19.27
2019-06-10T09:32:51.195Z,19.35
2019-06-10T09:35:17.218Z,19.44
2019-06-10T09:37:49.333Z,19.48
2019-06-10T09:40:16.651Z,19.56
2019-06-10T09:42:48.131Z,19.63
2019-06-10T09:45:16.155Z,19.65
2019-06-10T09:47:48.507Z,19.80
2019-06-10T09:50:15.881Z,19.95
2019-06-10T09:52:49.443Z,20.12
2019-06-10T09:55:14.988Z,20.26
2019-06-10T09:57:45.993Z,20.50
2019-06-10T10:00:16.639Z,20.75
2019-06-10T10:02:49.794Z,20.88
2019-06-10T10:05:15.673Z,20.91
2019-06-10T10:07:48.557Z,21.01
2019-06-10T10:10:17.658Z,20.91
2019-06-10T10:12:47.851Z,20.81
2019-06-10T10:15:29.899Z,20.92
2019-06-10T10:17:48.286Z,21.00
2019-06-10T10:20:15.922Z,21.26
2019-06-10T10:22:45.712Z,21.90
2019-06-10T10:25:14.539Z,21.79
2019-06-10T10:27:45.545Z,21.98
2019-06-10T10:30:13.535Z,22.21
2019-06-10T10:32:44.843Z,22.86
2019-06-10T10:35:12.747Z,22.89
2019-06-10T10:37:42.339Z,23.29
2019-06-10T10:40:12.299Z,23.56
2019-06-10T10:42:45.939Z,23.91
2019-06-10T10:45:13.784Z,23.92
2019-06-10T10:47:41.280Z,24.19
2019-06-10T10:50:10.065Z,24.56
2019-06-10T10:52:38.493Z,24.78
2019-06-10T10:55:07.262Z,25.15
2019-06-10T10:57:35.675Z,25.02
2019-06-10T11:00:09.189Z,25.08
2019-06-10T11:02:37.622Z,25.11
2019-06-10T11:05:08.162Z,25.38
2019-06-10T11:07:36.699Z,25.45
2019-06-10T11:10:08.670Z,25.79
2019-06-10T11:12:37.669Z,25.93
2019-06-10T11:15:06.635Z,26.05
2019-06-10T11:17:35.094Z,26.47
2019-06-10T11:20:04.392Z,26.75
2019-06-10T11:22:32.943Z,26.96
2019-06-10T11:25:01.337Z,27.36
2019-06-10T11:27:30.932Z,27.41
2019-06-10T11:30:02.314Z,27.61
2019-06-10T11:32:32.614Z,27.69
2019-06-10T11:35:02.786Z,27.77
2019-06-10T11:37:30.401Z,27.95
2019-06-10T11:39:58.828Z,28.09
2019-06-10T11:42:27.261Z,28.47
2019-06-10T11:44:58.357Z,28.63
2019-06-10T11:47:25.854Z,28.63
2019-06-10T11:49:55.360Z,28.79
2019-06-10T11:52:24.525Z,28.79
2019-06-10T11:55:05.560Z,29.00
2019-06-10T11:57:23.198Z,29.14
2019-06-10T11:59:53.283Z,28.81
2019-06-10T12:02:22.837Z,29.18
2019-06-10T12:04:53.655Z,29.12
2019-06-10T12:07:22.366Z,29.24
2019-06-10T12:09:51.596Z,29.43
2019-06-10T12:12:22.059Z,29.21
2019-06-10T12:14:51.546Z,29.48
2019-06-10T12:17:34.978Z,30.43
2019-06-10T12:19:53.840Z,29.95
2019-06-10T12:22:22.565Z,29.56
2019-06-10T12:24:57.738Z,29.58
2019-06-10T12:27:20.812Z,29.72
2019-06-10T12:29:50.041Z,29.66
2019-06-10T12:32:18.561Z,29.43
2019-06-10T12:34:46.986Z,29.24
2019-06-10T12:37:16.072Z,29.09
2019-06-10T12:39:44.534Z,28.70
2019-06-10T12:42:14.331Z,28.57
2019-06-10T12:44:43.045Z,28.42
2019-06-10T12:47:11.428Z,28.07
2019-06-10T12:49:39.862Z,27.96
2019-06-10T12:52:08.285Z,28.09
2019-06-10T12:54:36.721Z,27.99
2019-06-10T12:57:06.947Z,27.82
2019-06-10T12:59:35.641Z,27.90
2019-06-10T13:02:15.604Z,27.94
2019-06-10T13:04:34.972Z,27.98
2019-06-10T13:07:05.678Z,27.97
2019-06-10T13:09:36.926Z,28.31
2019-06-10T13:12:05.354Z,28.22
2019-06-10T13:14:33.787Z,28.34
2019-06-10T13:17:03.904Z,28.41
2019-06-10T13:19:34.317Z,28.28
2019-06-10T13:22:05.939Z,28.27
2019-06-10T13:24:33.764Z,28.16
2019-06-10T13:27:03.896Z,28.13
2019-06-10T13:29:33.252Z,28.26
2019-06-10T13:32:04.176Z,28.30
2019-06-10T13:34:32.487Z,28.32
2019-06-10T13:37:03.432Z,28.49
2019-06-10T13:39:32.551Z,28.81
2019-06-10T13:42:05.924Z,28.86
2019-06-10T13:44:32.200Z,29.05
2019-06-10T13:47:02.211Z,29.20
2019-06-10T13:49:33.039Z,29.39
2019-06-10T13:52:05.184Z,29.20
2019-06-10T13:54:31.215Z,29.25
2019-06-10T13:57:00.921Z,29.26
2019-06-10T13:59:29.961Z,29.04
2019-06-10T14:01:59.727Z,28.63
2019-06-10T14:04:28.557Z,28.40
2019-06-10T14:06:57.374Z,28.25
2019-06-10T14:09:25.791Z,28.21
2019-06-10T14:11:54.226Z,27.97
2019-06-10T14:14:23.101Z,27.89
2019-06-10T14:16:53.935Z,28.05
2019-06-10T14:19:23.199Z,28.23
2019-06-10T14:21:51.766Z,28.24
2019-06-10T14:24:22.807Z,28.06
2019-06-10T14:26:52.968Z,28.06
2019-06-10T14:29:20.513Z,28.25
2019-06-10T14:31:49.022Z,28.65
2019-06-10T14:34:18.666Z,28.65
2019-06-10T14:36:47.478Z,28.93
2019-06-10T14:39:16.099Z,29.27
2019-06-10T14:41:45.008Z,29.42
2019-06-10T14:44:16.134Z,29.82
2019-06-10T14:46:43.683Z,29.83
2019-06-10T14:49:14.082Z,29.87
2019-06-10T14:51:43.130Z,30.01
2019-06-10T14:54:14.662Z,30.16
2019-06-10T14:56:53.014Z,30.42
2019-06-10T14:59:14.944Z,30.70
2019-06-10T15:01:42.699Z,30.73
2019-06-10T15:04:14.382Z,30.90
2019-06-10T15:06:43.186Z,30.97
2019-06-10T15:09:11.584Z,31.10
2019-06-10T15:11:39.945Z,31.02
2019-06-10T15:14:09.485Z,31.02
2019-06-10T15:16:38.280Z,30.77
2019-06-10T15:19:14.533Z,30.69
2019-06-10T15:21:37.728Z,30.42
2019-06-10T15:24:06.164Z,30.28
2019-06-10T15:26:34.598Z,30.28
2019-06-10T15:29:03.046Z,30.15
2019-06-10T15:31:31.484Z,30.26
2019-06-10T15:33:59.910Z,30.27
2019-06-10T15:36:28.382Z,30.07
2019-06-10T15:38:56.809Z,30.12
2019-06-10T15:41:25.276Z,29.74
2019-06-10T15:43:53.703Z,29.74
2019-06-10T15:46:22.150Z,29.45
2019-06-10T15:48:53.912Z,29.21
2019-06-10T15:51:25.129Z,28.82
2019-06-10T15:53:50.883Z,28.85
2019-06-10T15:56:35.322Z,28.74
2019-06-10T15:58:49.489Z,28.54
2019-06-10T16:01:20.389Z,28.47
2019-06-10T16:03:48.071Z,28.39
2019-06-10T16:06:16.518Z,28.28
2019-06-10T16:08:44.956Z,28.18
2019-06-10T16:11:16.539Z,28.04
2019-06-10T16:13:43.567Z,28.04
2019-06-10T16:16:12.806Z,27.93
2019-06-10T16:18:42.317Z,27.90
2019-06-10T16:21:13.336Z,27.84
2019-06-10T16:23:42.962Z,27.76
2019-06-10T16:26:13.125Z,27.55
2019-06-10T16:28:42.737Z,27.45
2019-06-10T16:31:13.188Z,27.35
2019-06-10T16:33:49.232Z,27.21
2019-06-10T16:36:12.230Z,26.95
2019-06-10T16:38:42.350Z,26.78
2019-06-10T16:41:12.309Z,26.62
2019-06-10T16:43:42.693Z,27.18
2019-06-10T16:46:10.693Z,26.45
2019-06-10T16:48:39.145Z,26.20
2019-06-10T16:51:07.576Z,26.16
2019-06-10T16:53:36.011Z,25.95
2019-06-10T16:56:04.527Z,25.73
2019-06-10T16:58:33.590Z,25.63
2019-06-10T17:01:03.584Z,25.53
2019-06-10T17:03:33.759Z,25.35
2019-06-10T17:06:02.801Z,25.27
2019-06-10T17:08:33.475Z,25.14
2019-06-10T17:11:03.064Z,25.04
2019-06-10T17:13:30.788Z,25.48
2019-06-10T17:15:59.205Z,24.89
2019-06-10T17:18:28.556Z,24.70
2019-06-10T17:20:57.080Z,24.55
2019-06-10T17:23:27.965Z,25.03
2019-06-10T17:25:56.389Z,24.38
2019-06-10T17:28:30.770Z,24.85
2019-06-10T17:30:57.574Z,24.30
2019-06-10T17:33:27.912Z,23.99
2019-06-10T17:35:56.275Z,23.83
2019-06-10T17:38:24.831Z,23.67
2019-06-10T17:40:53.238Z,23.63
2019-06-10T17:43:21.666Z,23.44
2019-06-10T17:45:52.592Z,23.27
2019-06-10T17:48:23.737Z,23.25
2019-06-10T17:50:52.275Z,23.12
2019-06-10T17:53:19.786Z,23.54
2019-06-10T17:55:48.228Z,23.04
2019-06-10T17:58:31.744Z,22.87
2019-06-10T18:00:46.175Z,22.80
2019-06-10T18:03:14.548Z,23.24
2019-06-10T18:05:42.981Z,22.74
2019-06-10T18:08:13.088Z,22.63
2019-06-10T18:10:43.294Z,22.57
2019-06-10T18:13:16.254Z,23.04
2019-06-10T18:15:40.438Z,22.63
2019-06-10T18:18:08.809Z,22.94
2019-06-10T18:20:37.258Z,22.44
2019-06-10T18:23:05.701Z,22.34
2019-06-10T18:25:36.800Z,22.31
2019-06-10T18:28:04.363Z,22.14
2019-06-10T18:30:35.603Z,22.12
2019-06-10T18:33:03.353Z,21.96
2019-06-10T18:35:34.489Z,21.88
2019-06-10T18:38:02.410Z,21.82
2019-06-10T18:40:31.656Z,21.77
2019-06-10T18:43:02.766Z,21.68
2019-06-10T18:45:33.323Z,21.65
2019-06-10T18:47:59.834Z,21.64
2019-06-10T18:50:28.377Z,22.00
2019-06-10T18:52:58.857Z,21.34
2019-06-10T18:55:26.302Z,21.51
2019-06-10T18:57:54.683Z,21.87
2019-06-10T19:00:23.572Z,21.43
2019-06-10T19:03:08.691Z,21.35
2019-06-10T19:05:22.900Z,21.31
2019-06-10T19:07:52.895Z,21.22
2019-06-10T19:10:23.073Z,21.18
2019-06-10T19:12:53.007Z,21.16
2019-06-10T19:15:21.239Z,21.47
2019-06-10T19:17:49.667Z,21.02
2019-06-10T19:20:20.074Z,20.98
2019-06-10T19:22:48.503Z,20.92
2019-06-10T19:25:17.454Z,20.86
2019-06-10T19:27:45.898Z,20.78
2019-06-10T19:30:14.790Z,20.79
2019-06-10T19:32:44.354Z,20.75
2019-06-10T19:35:13.377Z,20.75
2019-06-10T19:37:42.370Z,20.67
2019-06-10T19:40:12.463Z,20.68
2019-06-10T19:42:43.357Z,20.55
2019-06-10T19:45:12.561Z,20.51
2019-06-10T19:47:44.102Z,20.47
2019-06-10T19:50:12.201Z,20.39
2019-06-10T19:52:43.270Z,20.36
2019-06-10T19:55:13.338Z,20.25
2019-06-10T19:57:41.817Z,20.21
2019-06-10T20:00:12.853Z,20.13
2019-06-10T20:02:44.587Z,20.10
2019-06-10T20:05:12.594Z,20.01
2019-06-10T20:07:45.810Z,20.00
2019-06-10T20:10:13.235Z,19.99
2019-06-10T20:12:44.846Z,19.93
2019-06-10T20:15:23.732Z,19.87
2019-06-10T20:17:52.689Z,19.88
2019-06-10T20:20:22.838Z,19.83
2019-06-10T20:22:53.357Z,19.80
2019-06-10T20:25:22.361Z,19.80
2019-06-10T20:27:52.347Z,19.82
2019-06-10T20:30:28.317Z,19.80
2019-06-10T20:32:55.699Z,19.78
2019-06-10T20:35:23.214Z,19.74
2019-06-10T20:37:53.838Z,19.74
2019-06-10T20:40:22.844Z,19.74
2019-06-10T20:42:51.264Z,19.73
2019-06-10T20:45:19.889Z,19.74
2019-06-10T20:47:48.334Z,19.73
2019-06-10T20:50:17.323Z,19.73
2019-06-10T20:52:46.370Z,19.73
2019-06-10T20:55:16.134Z,19.74
2019-06-10T20:57:57.652Z,19.75
2019-06-10T21:00:22.649Z,19.74
2019-06-10T21:02:49.044Z,19.74
2019-06-10T21:05:18.482Z,19.75
2019-06-10T21:07:48.859Z,19.72
2019-06-10T21:10:22.286Z,19.74
2019-06-10T21:12:51.039Z,19.71
2019-06-10T21:15:19.513Z,19.69
2019-06-10T21:17:49.121Z,19.68
2019-06-10T21:20:17.679Z,19.70
2019-06-10T21:22:47.427Z,19.70
2019-06-10T21:25:16.230Z,19.67
2019-06-10T21:27:46.128Z,19.65
2019-06-10T21:30:15.220Z,19.64
2019-06-10T21:32:45.663Z,19.56
2019-06-10T21:35:13.169Z,19.56
2019-06-10T21:37:44.839Z,19.92
2019-06-10T21:40:12.795Z,19.54
2019-06-10T21:42:41.699Z,19.48
2019-06-10T21:45:12.509Z,19.44
2019-06-10T21:47:43.886Z,19.36
2019-06-10T21:50:12.454Z,19.31
2019-06-10T21:52:44.085Z,19.25
2019-06-10T21:55:13.126Z,19.21
2019-06-10T21:57:43.028Z,19.17
2019-06-10T22:00:14.234Z,19.08
2019-06-10T22:02:44.511Z,19.03
2019-06-10T22:05:13.417Z,18.96
2019-06-10T22:07:42.306Z,18.89
2019-06-10T22:10:12.793Z,18.89
2019-06-10T22:12:42.150Z,18.83
2019-06-10T22:15:12.539Z,18.79
2019-06-10T22:17:42.535Z,18.74
2019-06-10T22:20:12.480Z,18.69
2019-06-10T22:22:42.928Z,18.68
2019-06-10T22:25:13.201Z,18.61
2019-06-10T22:27:42.187Z,18.60
2019-06-10T22:30:11.894Z,18.56
2019-06-10T22:32:42.782Z,18.53
2019-06-10T22:35:12.306Z,18.52
2019-06-10T22:37:40.909Z,18.47
2019-06-10T22:40:12.245Z,18.44
2019-06-10T22:42:38.914Z,18.35
2019-06-10T22:45:08.033Z,18.65
2019-06-10T22:47:36.497Z,18.30
2019-06-10T22:50:08.498Z,18.26
2019-06-10T22:52:36.949Z,18.18
2019-06-10T22:55:09.173Z,18.13
2019-06-10T22:57:37.612Z,18.12
2019-06-10T23:00:08.241Z,18.08
2019-06-10T23:02:36.730Z,18.04
2019-06-10T23:05:07.147Z,18.02
2019-06-10T23:07:35.605Z,17.99
2019-06-10T23:10:05.883Z,17.98
2019-06-10T23:12:34.324Z,17.98
2019-06-10T23:15:03.003Z,17.98
2019-06-10T23:17:31.483Z,17.98
2019-06-10T23:19:59.944Z,17.96
2019-06-10T23:22:28.375Z,17.97
2019-06-10T23:24:57.736Z,17.95
2019-06-10T23:27:26.256Z,17.92
2019-06-10T23:29:56.005Z,17.95
2019-06-10T23:32:24.880Z,17.89
2019-06-10T23:34:54.679Z,17.88
2019-06-10T23:37:23.492Z,17.85
2019-06-10T23:39:52.762Z,17.84
2019-06-10T23:42:22.732Z,17.81
2019-06-10T23:44:51.337Z,17.83
2019-06-10T23:47:21.979Z,17.79
2019-06-10T23:49:51.344Z,17.76
2019-06-10T23:52:22.041Z,17.77
2019-06-10T23:54:51.602Z,17.77
2019-06-10T23:57:22.322Z,17.76
2019-06-10T23:59:52.486Z,17.72
